Price, Utah
Current Conditions -  °F | °C
As of 5:53 AM on Friday 28 Nov 2014 (Local Time) from KPUC Reporting Station
Clear Clear  
Wind Chill: 23°   Ceiling: Unl
Heat Index: 28°   Visibility: 10mi
Dew Point: 20°   Wind: 5mph
Humidity: 72%   Direction: 50°NE
Pressure: 30.2"   Gusts: NA
Location:  39.6°N, 110.81°W
Report Text: KPUC 281253Z AUTO 05004KT 10SM CLR M02/M07 A3020 RMK AO2 SLP258 T10221067
Loading
Personal Weather Stations






























Interactive Weather Map New forecast layout! Learn more

10-Day Weather Forecast

Advertisements
Track Severe Weather on mobile